Terminal Aerodrome Forecast
Issued by NWS

Home | Current Version | Previous Version | Text Only | Print | Product List | Glossary On
Versions: 1 2 3 4 5 6 7 8 9 10 11 12 13
000
FTUS45 KTFX 190520
TAFHVR
TAF
KHVR 190520Z 1906/2006 22007KT P6SM FEW120 SCT180
     FM191400 34012G20KT P6SM FEW060 FEW200
     FM200300 VRB06KT P6SM FEW080 FEW200=

USA.gov is the U.S. government's official web portal to all federal, state and local government web resources and services.